Weather at Big Sky Airport

Public forecast

Using degrees Fahrenheit for public forecast. Weather courtesy of forecast.io.

Closest aviation weather report (METAR) to Big Sky Airport

Closest report is Moriarty Municipal Airport, 11.5 nm (21.2 km) S.

(retrieved 0 seconds ago)

Closest aviation forecast (TAF) to Big Sky Airport

Closest forecast is Santa Fe Municipal Airport, 27.4 nm (50.7 km) N.

2024/04/12 12:21 (retrieved 6 hours ago)

TAF KSAF 121140Z 1212/1312 01010KT P6SM SKC FM121700 22011KT P6SM SKC FM122000 20018G28KT P6SM SCT100 SCT200 FM130100 16014G24KT P6SM SCT100 SCT200 FM130500 15011KT P6SM SCT200 FM130700 VRB06KT P6SM SKC